Craftsbury Common, Vermont
Current Conditions -  °F | °C
As of 12:34 AM on Saturday 25 Oct 2014 (Local Time) from KMVL Reporting Station
Haze Haze  
Wind Chill: 34°   Ceiling: Unl
Heat Index: 34°   Visibility: 1.7mi
Dew Point: 33°   Wind: 0mph
Humidity: 96%   Direction: NA
Pressure: 29.81"   Gusts: NA
Location:  44.66°N, 72.38°W
Report Text: KMVL 250434Z AUTO 00000KT 1 3/4SM BR FEW002 01/01 A2981 RMK AO2 T00110006
Loading
Personal Weather Stations






























Interactive Weather Map
Tropical Storm Tracking
New forecast layout! Learn more

10-Day Weather Forecast

Advertisements
Track Severe Weather on mobile